createdAt,value
2022-08-22T00:00:07.799Z,3.97
2022-08-22T00:02:41.113Z,4.60
2022-08-22T00:02:43.290Z,5.07
2022-08-22T00:02:57.731Z,3.95
2022-08-22T00:03:06.413Z,3.75
2022-08-22T00:03:09.863Z,4.30
2022-08-22T00:03:10.964Z,5.35
2022-08-22T00:03:15.512Z,3.80
2022-08-22T00:05:18.624Z,4.40
2022-08-22T00:07:52.785Z,3.92
2022-08-22T00:10:25.976Z,4.57
2022-08-22T00:13:01.506Z,4.38
2022-08-22T00:15:42.885Z,3.97
2022-08-22T00:18:15.393Z,4.63
2022-08-22T00:20:48.979Z,4.47
2022-08-22T00:23:20.383Z,4.10
2022-08-22T00:25:55.429Z,3.95
2022-08-22T00:28:29.811Z,4.28
2022-08-22T00:31:02.209Z,4.45
2022-08-22T00:33:40.867Z,4.22
2022-08-22T00:36:19.157Z,4.15
2022-08-22T00:38:54.629Z,4.40
2022-08-22T00:41:33.784Z,3.88
2022-08-22T00:44:31.455Z,5.10
2022-08-22T00:47:18.342Z,3.75
2022-08-22T00:50:19.147Z,4.13
2022-08-22T00:52:59.008Z,4.20
2022-08-22T00:55:41.183Z,4.60
2022-08-22T00:58:33.417Z,3.83
2022-08-22T01:01:06.123Z,3.90
2022-08-22T01:03:55.017Z,4.47
2022-08-22T01:06:32.489Z,4.40
2022-08-22T01:09:06.146Z,4.63
2022-08-22T01:12:11.715Z,4.35
2022-08-22T01:14:44.754Z,4.15
2022-08-22T01:17:46.464Z,4.15
2022-08-22T01:20:56.008Z,4.47
2022-08-22T01:24:04.007Z,4.00
2022-08-22T01:27:02.854Z,4.22
2022-08-22T01:30:19.808Z,4.20
2022-08-22T01:36:07.727Z,4.03
2022-08-22T01:38:57.223Z,3.80
2022-08-22T01:41:51.528Z,4.10
2022-08-22T01:44:40.447Z,4.22
2022-08-22T01:47:13.167Z,4.35
2022-08-22T01:49:44.019Z,4.50
2022-08-22T01:52:18.244Z,4.13
2022-08-22T01:54:52.050Z,4.68
2022-08-22T01:57:19.111Z,4.38
2022-08-22T01:59:48.874Z,4.40
2022-08-22T02:02:36.348Z,4.75
2022-08-22T02:05:09.451Z,4.10
2022-08-22T02:07:48.639Z,4.43
2022-08-22T02:10:23.005Z,4.28
2022-08-22T02:12:57.883Z,4.38
2022-08-22T02:15:33.227Z,4.35
2022-08-22T02:18:11.496Z,4.70
2022-08-22T02:20:53.220Z,4.60
2022-08-22T02:23:28.071Z,4.40
2022-08-22T02:26:06.836Z,4.50
2022-08-22T02:28:40.542Z,4.50
2022-08-22T02:31:34.543Z,4.38
2022-08-22T02:34:14.932Z,4.30
2022-08-22T02:36:46.816Z,4.50
2022-08-22T02:41:54.972Z,4.30
2022-08-22T02:44:27.764Z,4.35
2022-08-22T02:47:05.400Z,4.65
2022-08-22T02:49:43.808Z,4.25
2022-08-22T02:52:18.555Z,4.50
2022-08-22T02:54:54.815Z,4.40
2022-08-22T02:57:29.938Z,4.50
2022-08-22T03:03:35.641Z,4.60
2022-08-22T03:06:06.753Z,4.70
2022-08-22T03:08:36.105Z,4.45
2022-08-22T03:11:17.977Z,4.38
2022-08-22T03:13:53.827Z,4.53
2022-08-22T03:16:28.496Z,4.53
2022-08-22T03:19:03.787Z,4.53
2022-08-22T03:21:35.812Z,5.57
2022-08-22T03:24:11.627Z,5.40
2022-08-22T03:26:48.266Z,5.30
2022-08-22T03:29:20.272Z,4.50
2022-08-22T03:32:11.349Z,5.05
2022-08-22T03:34:53.231Z,4.85
2022-08-22T03:37:31.798Z,4.53
2022-08-22T03:40:02.893Z,4.90
2022-08-22T03:42:59.189Z,4.97
2022-08-22T03:46:02.033Z,4.97
2022-08-22T03:49:01.690Z,4.85
2022-08-22T03:51:40.919Z,4.93
2022-08-22T03:54:26.561Z,5.03
2022-08-22T03:57:21.750Z,5.13
2022-08-22T04:00:10.515Z,4.88
2022-08-22T04:03:15.411Z,4.53
2022-08-22T04:06:11.549Z,5.07
2022-08-22T04:09:13.683Z,4.90
2022-08-22T04:12:00.450Z,5.13
2022-08-22T04:14:50.708Z,4.78
2022-08-22T04:17:53.337Z,4.93
2022-08-22T04:20:40.575Z,4.72
2022-08-22T04:23:35.634Z,4.78
2022-08-22T04:26:12.586Z,4.80
2022-08-22T04:28:44.981Z,5.10
2022-08-22T04:31:13.106Z,4.75
2022-08-22T04:33:47.871Z,5.60
2022-08-22T04:36:23.127Z,5.60
2022-08-22T04:38:56.861Z,5.00
2022-08-22T04:41:30.131Z,4.78
2022-08-22T04:44:00.192Z,5.38
2022-08-22T04:46:36.713Z,5.68
2022-08-22T04:49:10.708Z,4.97
2022-08-22T04:51:43.003Z,5.28
2022-08-22T04:54:24.538Z,5.07
2022-08-22T04:57:06.758Z,5.53
2022-08-22T04:59:34.769Z,5.03
2022-08-22T05:02:03.366Z,5.13
2022-08-22T05:04:33.900Z,5.10
2022-08-22T05:07:11.411Z,5.78
2022-08-22T05:09:42.164Z,5.57
2022-08-22T05:12:15.101Z,5.50
2022-08-22T05:14:44.234Z,5.18
2022-08-22T05:17:23.866Z,5.70
2022-08-22T05:19:54.753Z,5.72
2022-08-22T05:22:27.034Z,6.05
2022-08-22T05:24:59.470Z,5.20
2022-08-22T05:27:31.023Z,5.68
2022-08-22T05:30:02.198Z,5.45
2022-08-22T05:32:33.077Z,5.57
2022-08-22T05:35:03.471Z,5.50
2022-08-22T05:37:38.351Z,5.78
2022-08-22T05:40:07.017Z,5.57
2022-08-22T05:42:35.567Z,5.65
2022-08-22T05:45:05.156Z,5.47
2022-08-22T05:47:38.116Z,5.07
2022-08-22T05:50:10.820Z,4.63
2022-08-22T05:52:48.525Z,5.10
2022-08-22T05:55:24.161Z,4.80
2022-08-22T05:58:02.125Z,5.15
2022-08-22T06:00:34.223Z,5.18
2022-08-22T06:03:13.636Z,4.72
2022-08-22T06:05:46.890Z,4.20
2022-08-22T06:08:20.134Z,4.35
2022-08-22T06:10:50.724Z,5.35
2022-08-22T06:13:24.427Z,4.10
2022-08-22T06:16:02.777Z,4.30
2022-08-22T06:18:31.921Z,4.25
2022-08-22T06:21:02.690Z,4.65
2022-08-22T06:23:36.125Z,5.40
2022-08-22T06:26:05.024Z,5.75
2022-08-22T06:28:36.942Z,5.50
2022-08-22T06:31:05.101Z,4.88
2022-08-22T06:33:36.942Z,5.65
2022-08-22T06:36:11.479Z,5.47
2022-08-22T06:38:54.069Z,5.28
2022-08-22T06:41:25.029Z,6.05
2022-08-22T06:43:52.403Z,6.32
2022-08-22T06:46:21.751Z,5.93
2022-08-22T06:48:49.154Z,5.22
2022-08-22T06:51:20.144Z,5.32
2022-08-22T06:53:51.348Z,5.40
2022-08-22T06:56:21.697Z,5.22
2022-08-22T06:58:50.972Z,5.57
2022-08-22T07:01:22.158Z,5.10
2022-08-22T07:03:52.711Z,5.40
2022-08-22T07:06:28.098Z,5.50
2022-08-22T07:08:55.762Z,5.68
2022-08-22T07:11:26.846Z,5.55
2022-08-22T07:13:57.420Z,7.05
2022-08-22T07:16:30.717Z,7.00
2022-08-22T07:18:58.258Z,7.20
2022-08-22T07:21:30.573Z,7.45
2022-08-22T07:24:00.231Z,7.55
2022-08-22T07:26:33.319Z,6.53
2022-08-22T07:29:20.465Z,6.63
2022-08-22T07:31:59.082Z,6.88
2022-08-22T07:34:37.183Z,6.88
2022-08-22T07:37:12.198Z,7.68
2022-08-22T07:39:49.723Z,7.13
2022-08-22T07:42:18.580Z,6.50
2022-08-22T07:45:00.683Z,7.97
2022-08-22T07:47:37.378Z,7.20
2022-08-22T07:50:08.080Z,7.13
2022-08-22T07:52:40.668Z,6.90
2022-08-22T07:55:15.489Z,6.63
2022-08-22T07:57:46.930Z,5.95
2022-08-22T08:00:16.596Z,6.30
2022-08-22T08:02:47.846Z,5.88
2022-08-22T08:05:15.302Z,6.05
2022-08-22T08:07:45.761Z,6.18
2022-08-22T08:10:16.909Z,6.35
2022-08-22T08:12:58.000Z,5.53
2022-08-22T08:15:30.333Z,6.38
2022-08-22T08:18:01.199Z,6.15
2022-08-22T08:20:28.966Z,5.85
2022-08-22T08:22:59.108Z,6.03
2022-08-22T08:25:29.655Z,4.80
2022-08-22T08:27:59.117Z,4.90
2022-08-22T08:30:36.243Z,4.80
2022-08-22T08:33:25.610Z,4.85
2022-08-22T08:36:02.881Z,4.95
2022-08-22T08:42:22.071Z,4.47
2022-08-22T08:45:09.388Z,3.67
2022-08-22T08:47:50.091Z,4.00
2022-08-22T08:50:33.716Z,3.90
2022-08-22T08:53:31.634Z,3.58
2022-08-22T08:56:05.327Z,3.10
2022-08-22T08:58:41.476Z,3.30
2022-08-22T09:01:35.661Z,3.03
2022-08-22T09:04:35.536Z,3.10
2022-08-22T09:07:26.608Z,2.30
2022-08-22T09:10:13.807Z,3.00
2022-08-22T09:13:11.749Z,2.30
2022-08-22T09:16:04.471Z,2.10
2022-08-22T09:19:11.134Z,2.50
2022-08-22T09:21:57.554Z,2.25
2022-08-22T09:24:47.880Z,2.40
2022-08-22T09:27:19.165Z,2.45
2022-08-22T09:29:54.911Z,2.70
2022-08-22T09:32:43.286Z,2.45
2022-08-22T09:35:22.390Z,2.30
2022-08-22T09:38:09.772Z,2.35
2022-08-22T09:40:44.923Z,2.70
2022-08-22T09:43:21.319Z,2.88
2022-08-22T09:46:02.067Z,2.83
2022-08-22T09:48:51.005Z,3.00
2022-08-22T09:51:32.396Z,2.95
2022-08-22T09:54:14.576Z,2.40
2022-08-22T09:59:24.506Z,2.97
2022-08-22T10:01:57.990Z,2.85
2022-08-22T10:04:47.697Z,2.97
2022-08-22T10:07:33.641Z,2.53
2022-08-22T10:10:16.004Z,2.70
2022-08-22T10:12:54.802Z,2.42
2022-08-22T10:15:30.060Z,2.50
2022-08-22T10:18:10.444Z,2.28
2022-08-22T10:20:54.665Z,2.20
2022-08-22T10:23:26.114Z,2.22
2022-08-22T10:25:57.427Z,2.42
2022-08-22T10:28:38.323Z,2.30
2022-08-22T10:31:21.247Z,2.30
2022-08-22T10:33:59.154Z,2.13
2022-08-22T10:36:48.688Z,2.03
2022-08-22T10:39:22.547Z,2.03
2022-08-22T10:42:12.068Z,1.85
2022-08-22T10:44:44.232Z,1.70
2022-08-22T10:47:15.045Z,2.10
2022-08-22T10:49:51.186Z,1.80
2022-08-22T10:52:23.470Z,1.98
2022-08-22T10:54:55.541Z,1.90
2022-08-22T10:57:33.110Z,2.03
2022-08-22T11:00:09.282Z,2.20
2022-08-22T11:02:42.280Z,2.15
2022-08-22T11:05:27.148Z,1.80
2022-08-22T11:08:11.310Z,2.00
2022-08-22T11:10:54.235Z,2.22
2022-08-22T11:13:32.345Z,2.30
2022-08-22T11:16:08.230Z,2.20
2022-08-22T11:19:02.480Z,2.20
2022-08-22T11:21:48.293Z,2.22
2022-08-22T11:24:56.685Z,2.00
2022-08-22T11:27:39.506Z,1.80
2022-08-22T11:30:10.259Z,2.20
2022-08-22T11:33:13.713Z,2.10
2022-08-22T11:35:44.662Z,2.15
2022-08-22T11:38:24.244Z,2.00
2022-08-22T11:41:02.903Z,2.40
2022-08-22T11:43:44.028Z,2.22
2022-08-22T11:46:28.655Z,2.20
2022-08-22T11:49:33.834Z,2.22
2022-08-22T11:52:08.610Z,2.70
2022-08-22T11:54:52.972Z,2.17
2022-08-22T11:57:29.479Z,2.35
2022-08-22T12:00:07.213Z,2.45
2022-08-22T12:02:49.188Z,2.05
2022-08-22T12:05:24.448Z,2.30
2022-08-22T12:07:59.007Z,2.30
2022-08-22T12:10:32.241Z,2.60
2022-08-22T12:13:04.804Z,2.35
2022-08-22T12:15:42.323Z,2.45
2022-08-22T12:18:25.113Z,2.60
2022-08-22T12:23:56.054Z,2.03
2022-08-22T12:26:33.178Z,2.38
2022-08-22T12:29:20.038Z,2.22
2022-08-22T12:32:29.175Z,2.17
2022-08-22T12:35:13.467Z,2.20
2022-08-22T12:37:52.383Z,2.42
2022-08-22T12:40:29.458Z,2.63
2022-08-22T12:43:25.918Z,2.85
2022-08-22T12:46:12.832Z,2.70
2022-08-22T12:48:54.700Z,2.53
2022-08-22T12:51:29.425Z,2.60
2022-08-22T12:54:35.619Z,2.20
2022-08-22T12:57:24.453Z,2.17
2022-08-22T12:59:55.241Z,2.20
2022-08-22T13:02:28.050Z,2.40
2022-08-22T13:07:29.060Z,2.45
2022-08-22T13:10:00.362Z,2.17
2022-08-22T13:12:30.886Z,2.70
2022-08-22T13:15:01.891Z,2.50
2022-08-22T13:17:29.292Z,2.50
2022-08-22T13:20:08.120Z,2.70
2022-08-22T13:22:38.852Z,2.25
2022-08-22T13:25:14.140Z,2.28
2022-08-22T13:27:50.979Z,2.47
2022-08-22T13:30:21.347Z,2.20
2022-08-22T13:32:50.901Z,2.42
2022-08-22T13:35:24.442Z,2.40
2022-08-22T13:37:55.621Z,2.35
2022-08-22T13:40:26.226Z,2.15
2022-08-22T13:43:02.532Z,2.30
2022-08-22T13:45:31.835Z,2.15
2022-08-22T13:48:03.525Z,2.47
2022-08-22T13:50:52.931Z,2.47
2022-08-22T13:53:28.728Z,2.22
2022-08-22T13:56:02.982Z,2.13
2022-08-22T13:58:37.971Z,2.25
2022-08-22T14:01:18.525Z,2.30
2022-08-22T14:03:49.837Z,2.13
2022-08-22T14:06:51.718Z,2.42
2022-08-22T14:12:12.142Z,1.85
2022-08-22T14:14:41.526Z,2.20
2022-08-22T14:17:15.231Z,2.17
2022-08-22T14:19:53.201Z,2.17
2022-08-22T14:25:04.953Z,2.58
2022-08-22T14:27:37.223Z,2.30
2022-08-22T14:30:14.611Z,2.33
2022-08-22T14:32:46.934Z,2.13
2022-08-22T14:35:23.487Z,2.20
2022-08-22T14:38:17.354Z,2.20
2022-08-22T14:40:45.288Z,2.30
2022-08-22T14:43:22.525Z,2.40
2022-08-22T14:45:56.502Z,2.65
2022-08-22T14:48:30.871Z,2.50
2022-08-22T14:51:01.355Z,2.58
2022-08-22T14:53:33.926Z,2.00
2022-08-22T14:56:05.895Z,2.20
2022-08-22T14:58:36.407Z,2.22
2022-08-22T15:01:10.425Z,2.22
2022-08-22T15:03:38.108Z,2.35
2022-08-22T15:06:09.142Z,2.33
2022-08-22T15:08:49.230Z,2.38
2022-08-22T15:11:22.732Z,2.72
2022-08-22T15:13:55.245Z,2.90
2022-08-22T15:16:27.617Z,2.80
2022-08-22T15:18:54.294Z,2.50
2022-08-22T15:21:24.782Z,2.75
2022-08-22T15:23:55.314Z,2.58
2022-08-22T15:26:28.410Z,2.97
2022-08-22T15:29:06.099Z,2.90
2022-08-22T15:31:33.633Z,2.92
2022-08-22T15:34:12.832Z,2.70
2022-08-22T15:37:00.212Z,3.25
2022-08-22T15:39:57.201Z,2.92
2022-08-22T15:42:26.974Z,2.80
2022-08-22T15:44:55.039Z,2.67
2022-08-22T15:47:31.531Z,3.08
2022-08-22T15:50:05.466Z,3.08
2022-08-22T15:52:35.784Z,2.90
2022-08-22T15:55:18.053Z,2.65
2022-08-22T15:57:51.840Z,2.90
2022-08-22T16:00:28.982Z,3.00
2022-08-22T16:03:01.995Z,2.72
2022-08-22T16:05:41.344Z,3.05
2022-08-22T16:08:11.895Z,2.72
2022-08-22T16:10:43.249Z,3.38
2022-08-22T16:13:33.703Z,2.97
2022-08-22T16:16:04.800Z,3.22
2022-08-22T16:19:15.331Z,2.95
2022-08-22T16:22:13.737Z,3.22
2022-08-22T16:25:04.697Z,3.33
2022-08-22T16:27:33.867Z,3.40
2022-08-22T16:30:07.859Z,3.47
2022-08-22T16:32:34.943Z,4.15
2022-08-22T16:35:01.635Z,3.13
2022-08-22T16:37:49.440Z,4.30
2022-08-22T16:40:23.926Z,3.35
2022-08-22T16:43:11.530Z,3.15
2022-08-22T16:45:40.598Z,3.33
2022-08-22T16:48:25.529Z,3.28
2022-08-22T16:51:12.989Z,3.20
2022-08-22T16:54:03.665Z,3.70
2022-08-22T16:56:37.550Z,3.05
2022-08-22T16:59:24.153Z,3.40
2022-08-22T17:02:10.413Z,3.70
2022-08-22T17:04:49.267Z,3.03
2022-08-22T17:07:29.576Z,3.22
2022-08-22T17:10:11.634Z,3.70
2022-08-22T17:12:52.013Z,3.50
2022-08-22T17:15:31.333Z,3.05
2022-08-22T17:18:19.283Z,3.40
2022-08-22T17:20:49.914Z,3.72
2022-08-22T17:23:29.385Z,3.40
2022-08-22T17:26:06.330Z,4.03
2022-08-22T17:28:39.541Z,3.17
2022-08-22T17:31:15.278Z,4.05
2022-08-22T17:34:04.430Z,3.70
2022-08-22T17:36:50.839Z,3.88
2022-08-22T17:39:33.699Z,3.33
2022-08-22T17:42:20.960Z,3.35
2022-08-22T17:44:58.652Z,4.07
2022-08-22T17:47:33.158Z,3.00
2022-08-22T17:50:05.365Z,3.90
2022-08-22T17:52:37.577Z,3.85
2022-08-22T17:55:14.904Z,3.70
2022-08-22T17:57:51.049Z,3.67
2022-08-22T18:00:24.955Z,3.50
2022-08-22T18:02:58.066Z,3.60
2022-08-22T18:05:29.364Z,3.70
2022-08-22T18:08:04.963Z,3.85
2022-08-22T18:10:45.354Z,3.83
2022-08-22T18:13:30.803Z,3.78
2022-08-22T18:16:01.775Z,4.18
2022-08-22T18:18:35.028Z,4.38
2022-08-22T18:21:06.368Z,4.68
2022-08-22T18:23:40.201Z,3.80
2022-08-22T18:26:20.339Z,4.47
2022-08-22T18:28:53.144Z,4.53
2022-08-22T18:31:36.394Z,4.43
2022-08-22T18:34:18.184Z,4.60
2022-08-22T18:36:54.901Z,4.35
2022-08-22T18:39:25.881Z,4.43
2022-08-22T18:42:02.702Z,4.18
2022-08-22T18:44:33.284Z,4.68
2022-08-22T18:47:09.703Z,4.18
2022-08-22T18:49:41.691Z,4.55
2022-08-22T18:52:15.983Z,4.57
2022-08-22T18:54:52.461Z,4.57
2022-08-22T18:57:42.632Z,4.22
2022-08-22T19:00:13.079Z,4.07
2022-08-22T19:03:15.055Z,4.90
2022-08-22T19:06:10.534Z,4.95
2022-08-22T19:08:54.106Z,5.30
2022-08-22T19:11:40.872Z,4.88
2022-08-22T19:14:29.286Z,4.43
2022-08-22T19:17:15.553Z,4.28
2022-08-22T19:19:54.100Z,5.30
2022-08-22T19:22:25.619Z,5.25
2022-08-22T19:25:17.936Z,4.85
2022-08-22T19:28:07.040Z,4.00
2022-08-22T19:30:44.642Z,4.60
2022-08-22T19:33:16.518Z,5.50
2022-08-22T19:36:03.070Z,4.80
2022-08-22T19:38:53.517Z,5.28
2022-08-22T19:41:49.081Z,4.78
2022-08-22T19:44:32.462Z,5.05
2022-08-22T19:47:07.087Z,4.72
2022-08-22T19:49:36.758Z,4.97
2022-08-22T19:52:13.424Z,4.85
2022-08-22T19:54:48.151Z,5.57
2022-08-22T19:57:20.953Z,5.53
2022-08-22T19:59:57.242Z,5.32
2022-08-22T20:02:33.194Z,4.40
2022-08-22T20:05:12.641Z,4.82
2022-08-22T20:07:52.863Z,4.43
2022-08-22T20:10:30.886Z,4.82
2022-08-22T20:13:02.807Z,4.38
2022-08-22T20:15:31.583Z,4.95
2022-08-22T20:20:58.871Z,4.78
2022-08-22T20:23:29.855Z,4.45
2022-08-22T20:25:57.767Z,4.63
2022-08-22T20:28:44.436Z,4.40
2022-08-22T20:31:19.767Z,5.15
2022-08-22T20:34:11.717Z,5.28
2022-08-22T20:36:42.753Z,4.57
2022-08-22T20:39:16.311Z,4.90
2022-08-22T20:41:49.152Z,4.53
2022-08-22T20:44:20.409Z,4.47
2022-08-22T20:46:55.195Z,4.65
2022-08-22T20:49:26.829Z,4.93
2022-08-22T20:51:55.483Z,4.88
2022-08-22T20:54:24.206Z,4.80
2022-08-22T20:56:53.886Z,4.40
2022-08-22T20:59:33.356Z,4.13
2022-08-22T21:02:07.289Z,4.70
2022-08-22T21:04:43.005Z,4.70
2022-08-22T21:07:10.409Z,4.07
2022-08-22T21:09:36.983Z,4.50
2022-08-22T21:12:04.359Z,4.28
2022-08-22T21:14:33.566Z,4.63
2022-08-22T21:17:22.908Z,4.22
2022-08-22T21:19:51.015Z,4.30
2022-08-22T21:22:24.466Z,4.70
2022-08-22T21:24:55.468Z,4.38
2022-08-22T21:27:28.279Z,4.15
2022-08-22T21:29:55.659Z,4.57
2022-08-22T21:32:26.824Z,4.72
2022-08-22T21:34:54.929Z,4.95
2022-08-22T21:37:29.186Z,4.22
2022-08-22T21:40:02.113Z,4.47
2022-08-22T21:42:32.801Z,4.22
2022-08-22T21:45:01.685Z,4.20
2022-08-22T21:47:31.858Z,4.72
2022-08-22T21:50:03.504Z,4.20
2022-08-22T21:52:32.413Z,4.00
2022-08-22T21:55:13.104Z,4.32
2022-08-22T21:57:39.628Z,4.03
2022-08-22T22:00:10.037Z,4.28
2022-08-22T22:02:39.956Z,4.20
2022-08-22T22:05:11.500Z,4.68
2022-08-22T22:07:39.913Z,4.40
2022-08-22T22:10:09.807Z,4.15
2022-08-22T22:12:38.929Z,4.30
2022-08-22T22:15:06.337Z,3.83
2022-08-22T22:17:32.889Z,4.30
2022-08-22T22:19:59.538Z,4.22
2022-08-22T22:22:27.448Z,3.70
2022-08-22T22:24:53.961Z,4.03
2022-08-22T22:27:20.526Z,4.60
2022-08-22T22:29:47.059Z,4.00
2022-08-22T22:32:13.623Z,4.32
2022-08-22T22:34:40.171Z,4.28
2022-08-22T22:37:09.154Z,4.30
2022-08-22T22:39:37.165Z,3.63
2022-08-22T22:42:04.782Z,4.28
2022-08-22T22:44:31.291Z,4.25
2022-08-22T22:46:58.861Z,4.75
2022-08-22T22:49:25.536Z,4.53
2022-08-22T22:51:52.067Z,4.07
2022-08-22T22:54:18.797Z,4.65
2022-08-22T22:56:55.285Z,4.45
2022-08-22T22:59:25.415Z,4.85
2022-08-22T23:02:04.905Z,4.30
2022-08-22T23:04:32.881Z,4.72
2022-08-22T23:06:59.705Z,4.05
2022-08-22T23:09:37.903Z,4.35
2022-08-22T23:12:08.028Z,4.57
2022-08-22T23:14:35.209Z,4.68
2022-08-22T23:17:02.613Z,5.47
2022-08-22T23:19:29.635Z,5.43
2022-08-22T23:21:57.807Z,5.90
2022-08-22T23:24:25.892Z,5.07
2022-08-22T23:26:52.497Z,4.40
2022-08-22T23:29:20.430Z,4.82
2022-08-22T23:31:50.100Z,4.32
2022-08-22T23:34:18.834Z,4.70
2022-08-22T23:36:46.737Z,4.75
2022-08-22T23:39:14.816Z,4.88
2022-08-22T23:41:41.404Z,5.18
2022-08-22T23:44:13.482Z,4.45
2022-08-22T23:46:42.532Z,4.55
2022-08-22T23:49:09.832Z,4.88
2022-08-22T23:51:36.537Z,4.80
2022-08-22T23:54:03.698Z,4.80
2022-08-22T23:56:32.503Z,5.20
2022-08-22T23:59:00.759Z,4.93
